createdAt,value
2018-12-19T00:02:03.820Z,3.80
2018-12-19T00:07:06.448Z,3.81
2018-12-19T00:12:09.040Z,3.88
2018-12-19T00:17:11.612Z,3.85
2018-12-19T00:22:14.180Z,3.82
2018-12-19T00:27:16.862Z,3.79
2018-12-19T00:32:19.814Z,3.77
2018-12-19T00:37:23.150Z,3.79
2018-12-19T00:42:25.794Z,3.72
2018-12-19T00:47:28.643Z,3.78
2018-12-19T00:52:31.489Z,3.74
2018-12-19T00:57:34.198Z,3.80
2018-12-19T01:02:36.851Z,3.74
2018-12-19T01:07:39.436Z,3.73
2018-12-19T01:12:42.005Z,3.81
2018-12-19T01:17:44.753Z,3.70
2018-12-19T01:22:47.358Z,3.62
2018-12-19T01:27:50.494Z,3.68
2018-12-19T01:32:53.120Z,3.68
2018-12-19T01:37:55.793Z,3.72
2018-12-19T01:42:58.397Z,3.65
2018-12-19T01:48:00.998Z,3.60
2018-12-19T01:53:03.613Z,3.68
2018-12-19T01:58:06.411Z,3.55
2018-12-19T02:03:09.106Z,3.42
2018-12-19T02:08:12.524Z,3.58
2018-12-19T02:13:15.323Z,3.57
2018-12-19T02:18:18.115Z,3.53
2018-12-19T02:23:20.677Z,3.52
2018-12-19T02:28:23.296Z,3.42
2018-12-19T02:33:26.605Z,3.55
2018-12-19T02:38:29.379Z,3.54
2018-12-19T02:43:32.815Z,3.47
2018-12-19T02:48:35.382Z,3.50
2018-12-19T02:53:37.950Z,3.45
2018-12-19T02:58:40.617Z,3.33
2018-12-19T03:03:43.237Z,3.36
2018-12-19T03:08:46.017Z,3.36
2018-12-19T03:13:50.766Z,3.43
2018-12-19T03:18:53.629Z,3.35
2018-12-19T03:23:56.282Z,3.15
2018-12-19T03:28:58.958Z,3.41
2018-12-19T03:34:01.654Z,3.45
2018-12-19T03:39:06.506Z,3.35
2018-12-19T03:44:09.200Z,3.31
2018-12-19T03:49:11.883Z,3.50
2018-12-19T03:54:14.497Z,3.38
2018-12-19T03:59:17.180Z,3.34
2018-12-19T04:04:19.960Z,3.48
2018-12-19T04:09:22.650Z,3.38
2018-12-19T04:14:25.350Z,3.44
2018-12-19T04:19:27.900Z,3.49
2018-12-19T04:24:30.481Z,3.39
2018-12-19T04:29:33.834Z,3.41
2018-12-19T04:34:36.408Z,3.44
2018-12-19T04:39:39.176Z,3.38
2018-12-19T04:44:41.763Z,3.45
2018-12-19T04:49:44.638Z,3.41
2018-12-19T04:54:47.268Z,3.48
2018-12-19T04:59:50.201Z,3.45
2018-12-19T05:04:52.777Z,3.39
2018-12-19T05:09:55.581Z,3.43
2018-12-19T05:14:58.164Z,3.52
2018-12-19T05:20:00.964Z,3.53
2018-12-19T05:25:06.977Z,4.22
2018-12-19T05:30:10.060Z,4.36
2018-12-19T05:35:13.001Z,4.74
2018-12-19T05:40:18.770Z,4.64
2018-12-19T05:45:20.449Z,4.42
2018-12-19T05:50:23.481Z,3.77
2018-12-19T05:55:26.102Z,3.78
2018-12-19T06:00:29.167Z,3.61
2018-12-19T06:05:31.881Z,3.67
2018-12-19T06:10:34.474Z,3.69
2018-12-19T06:15:37.029Z,3.63
2018-12-19T06:20:39.789Z,3.61
2018-12-19T06:25:42.488Z,3.62
2018-12-19T06:30:45.288Z,3.51
2018-12-19T06:35:47.832Z,3.43
2018-12-19T06:40:50.449Z,3.45
2018-12-19T06:45:53.053Z,3.49
2018-12-19T06:50:55.681Z,3.54
2018-12-19T06:55:58.355Z,3.45
2018-12-19T07:01:01.120Z,3.46
2018-12-19T07:06:03.715Z,3.47
2018-12-19T07:11:06.306Z,3.34
2018-12-19T07:16:08.953Z,3.42
2018-12-19T07:21:11.521Z,3.38
2018-12-19T07:26:14.134Z,3.47
2018-12-19T07:31:16.724Z,3.34
2018-12-19T07:36:19.305Z,3.44
2018-12-19T07:41:22.031Z,3.46
2018-12-19T07:46:24.906Z,3.55
2018-12-19T07:51:27.978Z,3.50
2018-12-19T07:56:30.877Z,3.45
2018-12-19T08:01:34.062Z,3.43
2018-12-19T08:06:36.769Z,3.61
2018-12-19T08:11:40.072Z,3.62
2018-12-19T08:16:42.711Z,3.54
2018-12-19T08:21:45.372Z,3.63
2018-12-19T08:26:48.104Z,3.71
2018-12-19T08:31:50.649Z,3.81
2018-12-19T08:36:53.212Z,3.74
2018-12-19T08:41:56.249Z,3.83
2018-12-19T08:46:59.043Z,3.83
2018-12-19T08:52:01.685Z,3.85
2018-12-19T08:57:04.308Z,3.93
2018-12-19T09:02:06.935Z,4.02
2018-12-19T09:07:09.948Z,3.93
2018-12-19T09:12:12.625Z,4.15
2018-12-19T09:17:15.954Z,4.08
2018-12-19T09:22:19.147Z,4.11
2018-12-19T09:27:21.814Z,4.16
2018-12-19T09:32:24.755Z,4.11
2018-12-19T09:37:27.349Z,4.22
2018-12-19T09:42:30.045Z,4.22
2018-12-19T09:47:32.716Z,4.17
2018-12-19T09:52:35.639Z,4.10
2018-12-19T09:57:39.356Z,4.04
2018-12-19T10:02:42.077Z,4.22
2018-12-19T10:07:44.745Z,4.18
2018-12-19T10:12:48.175Z,4.37
2018-12-19T10:17:50.796Z,4.34
2018-12-19T10:22:54.888Z,4.46
2018-12-19T10:27:58.133Z,4.47
2018-12-19T10:33:00.899Z,4.39
2018-12-19T10:38:03.699Z,4.40
2018-12-19T10:43:06.255Z,4.39
2018-12-19T10:48:09.061Z,4.44
2018-12-19T10:53:11.931Z,4.36
2018-12-19T10:58:14.691Z,4.44
2018-12-19T11:03:17.406Z,4.33
2018-12-19T11:08:20.426Z,4.31
2018-12-19T11:13:23.109Z,4.31
2018-12-19T11:18:25.812Z,4.51
2018-12-19T11:23:30.307Z,4.36
2018-12-19T11:28:32.935Z,4.35
2018-12-19T11:33:35.583Z,4.26
2018-12-19T11:38:38.224Z,4.28
2018-12-19T11:43:40.890Z,4.36
2018-12-19T11:48:43.624Z,4.45
2018-12-19T11:53:46.464Z,4.23
2018-12-19T11:58:49.225Z,4.22
2018-12-19T12:03:51.976Z,4.23
2018-12-19T12:08:54.526Z,4.21
2018-12-19T12:13:57.065Z,4.02
2018-12-19T12:18:59.707Z,3.85
2018-12-19T12:24:02.471Z,4.13
2018-12-19T12:29:05.306Z,4.27
2018-12-19T12:34:08.097Z,4.14
2018-12-19T12:39:10.674Z,4.22
2018-12-19T12:44:13.265Z,4.13
2018-12-19T12:49:15.809Z,4.19
2018-12-19T12:54:19.174Z,4.12
2018-12-19T12:59:22.081Z,4.13
2018-12-19T13:04:24.910Z,4.17
2018-12-19T13:09:27.514Z,4.10
2018-12-19T13:14:30.301Z,4.09
2018-12-19T13:19:32.958Z,4.22
2018-12-19T13:24:36.003Z,4.12
2018-12-19T13:29:38.797Z,4.10
2018-12-19T13:34:41.706Z,4.10
2018-12-19T13:39:44.849Z,4.00
2018-12-19T13:44:47.431Z,4.12
2018-12-19T13:49:50.202Z,4.10
2018-12-19T13:54:52.826Z,4.01
2018-12-19T13:59:55.410Z,4.06
2018-12-19T14:04:58.096Z,4.08
2018-12-19T14:10:01.426Z,4.08
2018-12-19T14:15:04.874Z,4.06
2018-12-19T14:20:08.325Z,4.03
2018-12-19T14:25:11.826Z,4.04
2018-12-19T14:30:14.445Z,4.05
2018-12-19T14:35:17.659Z,4.04
2018-12-19T14:40:20.249Z,3.99
2018-12-19T14:45:23.099Z,3.91
2018-12-19T14:50:26.888Z,3.96
2018-12-19T14:55:29.493Z,3.86
2018-12-19T15:00:32.122Z,3.88
2018-12-19T15:05:34.725Z,3.86
2018-12-19T15:10:37.355Z,3.83
2018-12-19T15:15:40.053Z,3.85
2018-12-19T15:20:43.256Z,3.83
2018-12-19T15:25:46.037Z,3.99
2018-12-19T15:30:48.745Z,3.88
2018-12-19T15:35:51.438Z,3.82
2018-12-19T15:40:54.146Z,3.78
2018-12-19T15:45:57.062Z,3.81
2018-12-19T15:50:59.774Z,3.76
2018-12-19T15:56:02.364Z,3.73
2018-12-19T16:01:05.106Z,3.70
2018-12-19T16:06:07.985Z,3.73
2018-12-19T16:11:10.856Z,3.68
2018-12-19T16:16:13.502Z,3.71
2018-12-19T16:21:16.061Z,3.70
2018-12-19T16:26:18.619Z,3.75
2018-12-19T16:31:21.180Z,3.75
2018-12-19T16:36:23.827Z,3.84
2018-12-19T16:41:27.421Z,3.82
2018-12-19T16:46:30.251Z,3.85
2018-12-19T16:51:32.892Z,3.83
2018-12-19T16:56:35.656Z,3.71
2018-12-19T17:01:39.179Z,3.88
2018-12-19T17:06:41.781Z,3.73
2018-12-19T17:11:44.394Z,3.85
2018-12-19T17:16:47.054Z,3.73
2018-12-19T17:21:49.751Z,3.70
2018-12-19T17:26:52.298Z,3.74
2018-12-19T17:31:55.463Z,3.65
2018-12-19T17:36:58.079Z,3.69
2018-12-19T17:42:01.699Z,3.75
2018-12-19T17:47:04.540Z,3.70
2018-12-19T17:52:07.269Z,3.79
2018-12-19T17:57:09.821Z,3.79
2018-12-19T18:02:12.600Z,3.68
2018-12-19T18:07:15.260Z,3.70
2018-12-19T18:12:17.959Z,3.57
2018-12-19T18:17:20.634Z,3.69
2018-12-19T18:22:23.455Z,3.60
2018-12-19T18:27:26.047Z,3.68
2018-12-19T18:32:28.693Z,3.58
2018-12-19T18:37:31.263Z,3.61
2018-12-19T18:42:33.994Z,3.67
2018-12-19T18:47:37.297Z,3.60
2018-12-19T18:52:40.583Z,3.67
2018-12-19T18:57:43.260Z,3.66
2018-12-19T19:02:46.417Z,4.82
2018-12-19T19:07:49.190Z,3.80
2018-12-19T19:12:51.799Z,3.79
2018-12-19T19:17:54.386Z,3.75
2018-12-19T19:22:57.865Z,3.74
2018-12-19T19:28:00.521Z,3.68
2018-12-19T19:33:03.245Z,3.76
2018-12-19T19:43:12.690Z,3.76
2018-12-19T19:48:15.230Z,3.63
2018-12-19T19:53:18.112Z,3.66
2018-12-19T19:58:20.846Z,3.63
2018-12-19T20:03:23.650Z,3.65
2018-12-19T20:08:26.243Z,3.51
2018-12-19T20:13:33.303Z,3.54
2018-12-19T20:18:33.599Z,3.52
2018-12-19T20:23:36.246Z,3.59
2018-12-19T20:28:38.833Z,3.50
2018-12-19T20:33:41.433Z,3.60
2018-12-19T20:38:44.114Z,3.58
2018-12-19T20:43:46.854Z,3.61
2018-12-19T20:48:50.181Z,3.57
2018-12-19T20:53:53.502Z,3.54
2018-12-19T20:58:56.810Z,3.50
2018-12-19T21:03:59.509Z,3.43
2018-12-19T21:09:02.826Z,3.48
2018-12-19T21:14:05.488Z,3.48
2018-12-19T21:19:08.124Z,3.49
2018-12-19T21:24:10.815Z,3.61
2018-12-19T21:29:13.565Z,3.59
2018-12-19T21:34:16.310Z,3.55
2018-12-19T21:39:19.214Z,3.55
2018-12-19T21:44:22.037Z,3.52
2018-12-19T21:49:24.825Z,3.47
2018-12-19T21:54:27.802Z,3.53
2018-12-19T21:59:30.405Z,3.43
2018-12-19T22:04:33.007Z,3.48
2018-12-19T22:09:36.170Z,3.50
2018-12-19T22:14:38.789Z,3.43
2018-12-19T22:19:41.508Z,3.59
2018-12-19T22:24:45.123Z,3.53
2018-12-19T22:29:47.758Z,3.57
2018-12-19T22:34:50.941Z,3.48
2018-12-19T22:39:53.718Z,3.49
2018-12-19T22:44:56.399Z,3.54
2018-12-19T22:49:59.217Z,3.53
2018-12-19T22:55:01.850Z,3.56
2018-12-19T23:00:08.333Z,3.38
2018-12-19T23:05:11.219Z,3.54
2018-12-19T23:10:14.459Z,3.55
2018-12-19T23:15:19.229Z,3.59
2018-12-19T23:20:22.003Z,3.52
2018-12-19T23:25:24.699Z,3.51
2018-12-19T23:30:28.239Z,3.29
2018-12-19T23:35:31.057Z,3.32
2018-12-19T23:40:33.831Z,3.27
2018-12-19T23:45:36.646Z,3.27
2018-12-19T23:50:39.889Z,3.29
2018-12-19T23:55:42.582Z,3.26
